sensor_id;sensor_type;location;lat;lon;timestamp;P1;durP1;ratioP1;P2;durP2;ratioP2
48317;SDS011;34127;47.412;9.730;2023-08-31T00:02:24;4.00;;;2.90;;
48317;SDS011;34127;47.412;9.730;2023-08-31T00:04:51;4.70;;;2.88;;
48317;SDS011;34127;47.412;9.730;2023-08-31T00:07:21;4.93;;;3.15;;
48317;SDS011;34127;47.412;9.730;2023-08-31T00:09:47;5.35;;;3.40;;
48317;SDS011;34127;47.412;9.730;2023-08-31T00:12:14;4.15;;;3.00;;
48317;SDS011;34127;47.412;9.730;2023-08-31T00:14:41;4.95;;;3.17;;
48317;SDS011;34127;47.412;9.730;2023-08-31T00:17:07;4.53;;;2.70;;
48317;SDS011;34127;47.412;9.730;2023-08-31T00:19:33;4.47;;;3.10;;
48317;SDS011;34127;47.412;9.730;2023-08-31T00:21:59;7.05;;;3.22;;
48317;SDS011;34127;47.412;9.730;2023-08-31T00:24:25;4.30;;;2.90;;
48317;SDS011;34127;47.412;9.730;2023-08-31T00:26:56;4.70;;;3.10;;
48317;SDS011;34127;47.412;9.730;2023-08-31T00:29:23;4.78;;;3.25;;
48317;SDS011;34127;47.412;9.730;2023-08-31T00:31:50;6.10;;;2.85;;
48317;SDS011;34127;47.412;9.730;2023-08-31T00:34:19;5.20;;;3.13;;
48317;SDS011;34127;47.412;9.730;2023-08-31T00:36:45;4.55;;;2.72;;
48317;SDS011;34127;47.412;9.730;2023-08-31T00:39:11;4.00;;;3.05;;
48317;SDS011;34127;47.412;9.730;2023-08-31T00:41:37;4.63;;;2.80;;
48317;SDS011;34127;47.412;9.730;2023-08-31T00:44:04;4.47;;;3.20;;
48317;SDS011;34127;47.412;9.730;2023-08-31T00:46:30;4.68;;;3.05;;
48317;SDS011;34127;47.412;9.730;2023-08-31T00:48:57;5.63;;;3.17;;
48317;SDS011;34127;47.412;9.730;2023-08-31T00:51:24;6.80;;;3.08;;
48317;SDS011;34127;47.412;9.730;2023-08-31T00:53:53;5.53;;;3.03;;
48317;SDS011;34127;47.412;9.730;2023-08-31T00:56:20;8.40;;;3.13;;
48317;SDS011;34127;47.412;9.730;2023-08-31T00:58:46;5.32;;;2.80;;
48317;SDS011;34127;47.412;9.730;2023-08-31T01:03:50;4.05;;;3.08;;
48317;SDS011;34127;47.412;9.730;2023-08-31T01:08:56;5.38;;;3.03;;
48317;SDS011;34127;47.412;9.730;2023-08-31T01:14:00;5.32;;;2.80;;
48317;SDS011;34127;47.412;9.730;2023-08-31T01:16:28;4.53;;;3.03;;
48317;SDS011;34127;47.412;9.730;2023-08-31T01:18:55;4.72;;;2.67;;
48317;SDS011;34127;47.412;9.730;2023-08-31T01:21:25;6.18;;;2.90;;
48317;SDS011;34127;47.412;9.730;2023-08-31T01:23:54;5.45;;;2.90;;
48317;SDS011;34127;47.412;9.730;2023-08-31T01:26:21;6.63;;;2.95;;
48317;SDS011;34127;47.412;9.730;2023-08-31T01:28:47;5.85;;;3.20;;
48317;SDS011;34127;47.412;9.730;2023-08-31T01:31:14;6.80;;;2.80;;
48317;SDS011;34127;47.412;9.730;2023-08-31T01:33:44;4.57;;;2.70;;
48317;SDS011;34127;47.412;9.730;2023-08-31T01:36:17;4.25;;;2.70;;
48317;SDS011;34127;47.412;9.730;2023-08-31T01:38:45;3.97;;;2.90;;
48317;SDS011;34127;47.412;9.730;2023-08-31T01:41:16;6.00;;;3.03;;
48317;SDS011;34127;47.412;9.730;2023-08-31T01:43:44;7.97;;;2.95;;
48317;SDS011;34127;47.412;9.730;2023-08-31T01:46:12;4.70;;;2.90;;
48317;SDS011;34127;47.412;9.730;2023-08-31T01:48:39;6.13;;;2.95;;
48317;SDS011;34127;47.412;9.730;2023-08-31T01:51:06;4.68;;;3.08;;
48317;SDS011;34127;47.412;9.730;2023-08-31T01:53:32;5.53;;;3.38;;
48317;SDS011;34127;47.412;9.730;2023-08-31T01:55:59;4.35;;;2.90;;
48317;SDS011;34127;47.412;9.730;2023-08-31T01:58:25;4.78;;;3.15;;
48317;SDS011;34127;47.412;9.730;2023-08-31T02:00:52;4.20;;;3.05;;
48317;SDS011;34127;47.412;9.730;2023-08-31T02:03:18;4.40;;;3.00;;
48317;SDS011;34127;47.412;9.730;2023-08-31T02:05:44;4.50;;;2.80;;
48317;SDS011;34127;47.412;9.730;2023-08-31T02:08:10;6.60;;;2.92;;
48317;SDS011;34127;47.412;9.730;2023-08-31T02:10:36;6.43;;;2.75;;
48317;SDS011;34127;47.412;9.730;2023-08-31T02:13:02;3.97;;;2.75;;
48317;SDS011;34127;47.412;9.730;2023-08-31T02:15:29;5.28;;;3.17;;
48317;SDS011;34127;47.412;9.730;2023-08-31T02:17:55;5.95;;;2.80;;
48317;SDS011;34127;47.412;9.730;2023-08-31T02:20:21;5.60;;;2.85;;
48317;SDS011;34127;47.412;9.730;2023-08-31T02:22:49;4.75;;;3.10;;
48317;SDS011;34127;47.412;9.730;2023-08-31T02:25:15;4.65;;;3.08;;
48317;SDS011;34127;47.412;9.730;2023-08-31T02:27:41;5.40;;;3.05;;
48317;SDS011;34127;47.412;9.730;2023-08-31T02:30:08;7.63;;;3.40;;
48317;SDS011;34127;47.412;9.730;2023-08-31T02:32:34;5.10;;;3.28;;
48317;SDS011;34127;47.412;9.730;2023-08-31T02:35:01;5.03;;;3.30;;
48317;SDS011;34127;47.412;9.730;2023-08-31T02:37:27;5.50;;;3.70;;
48317;SDS011;34127;47.412;9.730;2023-08-31T02:39:54;5.85;;;3.50;;
48317;SDS011;34127;47.412;9.730;2023-08-31T02:42:20;7.93;;;3.63;;
48317;SDS011;34127;47.412;9.730;2023-08-31T02:44:46;5.57;;;3.38;;
48317;SDS011;34127;47.412;9.730;2023-08-31T02:47:12;5.28;;;3.35;;
48317;SDS011;34127;47.412;9.730;2023-08-31T02:49:39;5.38;;;3.70;;
48317;SDS011;34127;47.412;9.730;2023-08-31T02:52:06;5.50;;;3.60;;
48317;SDS011;34127;47.412;9.730;2023-08-31T02:54:32;6.50;;;3.95;;
48317;SDS011;34127;47.412;9.730;2023-08-31T02:56:58;7.03;;;3.80;;
48317;SDS011;34127;47.412;9.730;2023-08-31T02:59:25;8.48;;;3.78;;
48317;SDS011;34127;47.412;9.730;2023-08-31T03:01:51;4.88;;;3.42;;
48317;SDS011;34127;47.412;9.730;2023-08-31T03:04:17;5.78;;;3.42;;
48317;SDS011;34127;47.412;9.730;2023-08-31T03:06:43;6.43;;;3.50;;
48317;SDS011;34127;47.412;9.730;2023-08-31T03:09:10;4.72;;;3.40;;
48317;SDS011;34127;47.412;9.730;2023-08-31T03:11:37;4.32;;;3.17;;
48317;SDS011;34127;47.412;9.730;2023-08-31T03:14:05;5.85;;;3.25;;
48317;SDS011;34127;47.412;9.730;2023-08-31T03:16:32;6.85;;;3.45;;
48317;SDS011;34127;47.412;9.730;2023-08-31T03:18:58;5.22;;;3.15;;
48317;SDS011;34127;47.412;9.730;2023-08-31T03:21:24;5.20;;;3.25;;
48317;SDS011;34127;47.412;9.730;2023-08-31T03:23:51;6.85;;;3.72;;
48317;SDS011;34127;47.412;9.730;2023-08-31T03:26:17;5.30;;;3.53;;
48317;SDS011;34127;47.412;9.730;2023-08-31T03:28:44;4.20;;;3.10;;
48317;SDS011;34127;47.412;9.730;2023-08-31T03:31:10;6.13;;;3.60;;
48317;SDS011;34127;47.412;9.730;2023-08-31T03:33:36;6.53;;;3.50;;
48317;SDS011;34127;47.412;9.730;2023-08-31T03:36:02;5.65;;;3.30;;
48317;SDS011;34127;47.412;9.730;2023-08-31T03:38:32;5.00;;;3.50;;
48317;SDS011;34127;47.412;9.730;2023-08-31T03:41:02;6.03;;;3.80;;
48317;SDS011;34127;47.412;9.730;2023-08-31T03:43:29;6.18;;;3.60;;
48317;SDS011;34127;47.412;9.730;2023-08-31T03:45:55;5.43;;;3.75;;
48317;SDS011;34127;47.412;9.730;2023-08-31T03:48:23;6.00;;;3.65;;
48317;SDS011;34127;47.412;9.730;2023-08-31T03:50:50;6.15;;;3.60;;
48317;SDS011;34127;47.412;9.730;2023-08-31T03:53:16;5.75;;;3.63;;
48317;SDS011;34127;47.412;9.730;2023-08-31T03:55:42;5.18;;;3.65;;
48317;SDS011;34127;47.412;9.730;2023-08-31T03:58:08;7.07;;;3.65;;
48317;SDS011;34127;47.412;9.730;2023-08-31T04:00:36;4.90;;;3.58;;
48317;SDS011;34127;47.412;9.730;2023-08-31T04:03:02;4.95;;;3.30;;
48317;SDS011;34127;47.412;9.730;2023-08-31T04:05:31;4.60;;;3.25;;
48317;SDS011;34127;47.412;9.730;2023-08-31T04:07:59;6.40;;;3.40;;
48317;SDS011;34127;47.412;9.730;2023-08-31T04:10:25;9.48;;;3.70;;
48317;SDS011;34127;47.412;9.730;2023-08-31T04:12:51;5.18;;;3.35;;
48317;SDS011;34127;47.412;9.730;2023-08-31T04:15:17;5.25;;;3.70;;
48317;SDS011;34127;47.412;9.730;2023-08-31T04:17:43;5.95;;;3.83;;
48317;SDS011;34127;47.412;9.730;2023-08-31T04:20:10;8.27;;;3.83;;
48317;SDS011;34127;47.412;9.730;2023-08-31T04:22:37;4.75;;;3.42;;
48317;SDS011;34127;47.412;9.730;2023-08-31T04:25:04;7.43;;;3.83;;
48317;SDS011;34127;47.412;9.730;2023-08-31T04:27:30;8.00;;;4.10;;
48317;SDS011;34127;47.412;9.730;2023-08-31T04:29:58;7.78;;;3.65;;
48317;SDS011;34127;47.412;9.730;2023-08-31T04:32:25;6.70;;;4.10;;
48317;SDS011;34127;47.412;9.730;2023-08-31T04:34:51;6.55;;;3.85;;
48317;SDS011;34127;47.412;9.730;2023-08-31T04:37:17;5.85;;;3.58;;
48317;SDS011;34127;47.412;9.730;2023-08-31T04:39:44;6.38;;;3.80;;
48317;SDS011;34127;47.412;9.730;2023-08-31T04:42:10;5.03;;;3.47;;
48317;SDS011;34127;47.412;9.730;2023-08-31T04:44:36;6.63;;;3.83;;
48317;SDS011;34127;47.412;9.730;2023-08-31T04:47:03;6.70;;;3.53;;
48317;SDS011;34127;47.412;9.730;2023-08-31T04:49:29;6.10;;;3.17;;
48317;SDS011;34127;47.412;9.730;2023-08-31T04:51:55;4.93;;;3.50;;
48317;SDS011;34127;47.412;9.730;2023-08-31T04:54:22;5.85;;;3.00;;
48317;SDS011;34127;47.412;9.730;2023-08-31T04:56:48;7.32;;;3.70;;
48317;SDS011;34127;47.412;9.730;2023-08-31T04:59:14;6.05;;;3.58;;
48317;SDS011;34127;47.412;9.730;2023-08-31T05:01:40;4.88;;;3.28;;
48317;SDS011;34127;47.412;9.730;2023-08-31T05:04:07;7.50;;;3.35;;
48317;SDS011;34127;47.412;9.730;2023-08-31T05:06:34;4.40;;;2.90;;
48317;SDS011;34127;47.412;9.730;2023-08-31T05:09:00;5.75;;;3.20;;
48317;SDS011;34127;47.412;9.730;2023-08-31T05:11:26;5.97;;;3.60;;
48317;SDS011;34127;47.412;9.730;2023-08-31T05:13:52;7.70;;;3.50;;
48317;SDS011;34127;47.412;9.730;2023-08-31T05:16:18;5.32;;;3.40;;
48317;SDS011;34127;47.412;9.730;2023-08-31T05:18:44;10.73;;;3.60;;
48317;SDS011;34127;47.412;9.730;2023-08-31T05:21:10;10.50;;;3.45;;
48317;SDS011;34127;47.412;9.730;2023-08-31T05:23:39;8.38;;;3.33;;
48317;SDS011;34127;47.412;9.730;2023-08-31T05:26:06;8.32;;;3.58;;
48317;SDS011;34127;47.412;9.730;2023-08-31T05:28:32;14.70;;;4.30;;
48317;SDS011;34127;47.412;9.730;2023-08-31T05:30:59;7.40;;;4.05;;
48317;SDS011;34127;47.412;9.730;2023-08-31T05:33:26;6.32;;;3.63;;
48317;SDS011;34127;47.412;9.730;2023-08-31T05:35:54;6.43;;;3.90;;
48317;SDS011;34127;47.412;9.730;2023-08-31T05:38:20;6.07;;;3.53;;
48317;SDS011;34127;47.412;9.730;2023-08-31T05:40:46;7.22;;;3.60;;
48317;SDS011;34127;47.412;9.730;2023-08-31T05:43:13;9.10;;;3.70;;
48317;SDS011;34127;47.412;9.730;2023-08-31T05:45:39;5.40;;;3.63;;
48317;SDS011;34127;47.412;9.730;2023-08-31T05:48:06;11.93;;;4.20;;
48317;SDS011;34127;47.412;9.730;2023-08-31T05:50:33;11.57;;;3.92;;
48317;SDS011;34127;47.412;9.730;2023-08-31T05:52:59;7.07;;;3.90;;
48317;SDS011;34127;47.412;9.730;2023-08-31T05:55:25;8.98;;;4.57;;
48317;SDS011;34127;47.412;9.730;2023-08-31T05:57:51;8.30;;;4.32;;
48317;SDS011;34127;47.412;9.730;2023-08-31T06:00:17;6.22;;;3.17;;
48317;SDS011;34127;47.412;9.730;2023-08-31T06:02:44;6.20;;;3.70;;
48317;SDS011;34127;47.412;9.730;2023-08-31T06:05:10;5.03;;;3.03;;
48317;SDS011;34127;47.412;9.730;2023-08-31T06:07:43;5.55;;;3.22;;
48317;SDS011;34127;47.412;9.730;2023-08-31T06:10:09;7.07;;;3.38;;
48317;SDS011;34127;47.412;9.730;2023-08-31T06:12:36;6.20;;;3.50;;
48317;SDS011;34127;47.412;9.730;2023-08-31T06:15:05;15.02;;;5.85;;
48317;SDS011;34127;47.412;9.730;2023-08-31T06:17:32;14.73;;;5.50;;
48317;SDS011;34127;47.412;9.730;2023-08-31T06:20:00;11.68;;;4.53;;
48317;SDS011;34127;47.412;9.730;2023-08-31T06:22:26;5.70;;;3.60;;
48317;SDS011;34127;47.412;9.730;2023-08-31T06:24:52;7.40;;;3.75;;
48317;SDS011;34127;47.412;9.730;2023-08-31T06:27:18;10.77;;;4.35;;
48317;SDS011;34127;47.412;9.730;2023-08-31T06:29:45;12.40;;;5.18;;
48317;SDS011;34127;47.412;9.730;2023-08-31T06:32:11;8.88;;;3.80;;
48317;SDS011;34127;47.412;9.730;2023-08-31T06:34:37;9.48;;;3.55;;
48317;SDS011;34127;47.412;9.730;2023-08-31T06:37:03;9.25;;;3.55;;
48317;SDS011;34127;47.412;9.730;2023-08-31T06:39:32;9.15;;;3.55;;
48317;SDS011;34127;47.412;9.730;2023-08-31T06:41:58;10.20;;;4.00;;
48317;SDS011;34127;47.412;9.730;2023-08-31T06:44:25;7.05;;;3.33;;
48317;SDS011;34127;47.412;9.730;2023-08-31T06:46:51;8.15;;;3.35;;
48317;SDS011;34127;47.412;9.730;2023-08-31T06:49:18;8.35;;;3.28;;
48317;SDS011;34127;47.412;9.730;2023-08-31T06:51:45;9.75;;;4.22;;
48317;SDS011;34127;47.412;9.730;2023-08-31T06:54:11;16.23;;;7.60;;
48317;SDS011;34127;47.412;9.730;2023-08-31T06:56:37;10.55;;;5.45;;
48317;SDS011;34127;47.412;9.730;2023-08-31T06:59:03;10.80;;;4.63;;
48317;SDS011;34127;47.412;9.730;2023-08-31T07:01:30;9.45;;;4.75;;
48317;SDS011;34127;47.412;9.730;2023-08-31T07:03:57;7.70;;;4.20;;
48317;SDS011;34127;47.412;9.730;2023-08-31T07:06:23;7.00;;;3.28;;
48317;SDS011;34127;47.412;9.730;2023-08-31T07:08:50;7.25;;;3.05;;
48317;SDS011;34127;47.412;9.730;2023-08-31T07:11:17;10.85;;;3.67;;
48317;SDS011;34127;47.412;9.730;2023-08-31T07:13:43;6.10;;;2.88;;
48317;SDS011;34127;47.412;9.730;2023-08-31T07:16:09;4.57;;;2.65;;
48317;SDS011;34127;47.412;9.730;2023-08-31T07:18:36;7.38;;;2.83;;
48317;SDS011;34127;47.412;9.730;2023-08-31T07:21:02;5.10;;;3.25;;
48317;SDS011;34127;47.412;9.730;2023-08-31T07:23:33;5.82;;;2.97;;
48317;SDS011;34127;47.412;9.730;2023-08-31T07:26:02;4.30;;;2.45;;
48317;SDS011;34127;47.412;9.730;2023-08-31T07:28:30;10.52;;;3.50;;
48317;SDS011;34127;47.412;9.730;2023-08-31T07:31:06;6.03;;;2.97;;
48317;SDS011;34127;47.412;9.730;2023-08-31T07:33:32;4.60;;;2.60;;
48317;SDS011;34127;47.412;9.730;2023-08-31T07:35:59;6.95;;;2.88;;
48317;SDS011;34127;47.412;9.730;2023-08-31T07:38:26;5.00;;;2.88;;
48317;SDS011;34127;47.412;9.730;2023-08-31T07:40:53;7.18;;;2.90;;
48317;SDS011;34127;47.412;9.730;2023-08-31T07:43:19;12.65;;;3.75;;
48317;SDS011;34127;47.412;9.730;2023-08-31T07:45:45;6.13;;;3.10;;
48317;SDS011;34127;47.412;9.730;2023-08-31T07:48:11;5.95;;;3.65;;
48317;SDS011;34127;47.412;9.730;2023-08-31T07:50:39;5.13;;;3.38;;
48317;SDS011;34127;47.412;9.730;2023-08-31T07:53:06;8.48;;;3.90;;
48317;SDS011;34127;47.412;9.730;2023-08-31T07:55:32;9.00;;;3.92;;
48317;SDS011;34127;47.412;9.730;2023-08-31T07:57:58;6.50;;;3.78;;
48317;SDS011;34127;47.412;9.730;2023-08-31T08:00:25;7.20;;;4.20;;
48317;SDS011;34127;47.412;9.730;2023-08-31T08:02:51;10.35;;;6.50;;
48317;SDS011;34127;47.412;9.730;2023-08-31T08:05:17;5.90;;;3.35;;
48317;SDS011;34127;47.412;9.730;2023-08-31T08:07:43;4.50;;;3.05;;
48317;SDS011;34127;47.412;9.730;2023-08-31T08:10:09;6.10;;;2.90;;
48317;SDS011;34127;47.412;9.730;2023-08-31T08:12:39;5.13;;;3.42;;
48317;SDS011;34127;47.412;9.730;2023-08-31T08:15:05;9.98;;;5.45;;
48317;SDS011;34127;47.412;9.730;2023-08-31T08:17:33;17.80;;;9.90;;
48317;SDS011;34127;47.412;9.730;2023-08-31T08:19:59;11.18;;;6.15;;
48317;SDS011;34127;47.412;9.730;2023-08-31T08:22:25;6.25;;;3.67;;
48317;SDS011;34127;47.412;9.730;2023-08-31T08:24:51;6.75;;;2.95;;
48317;SDS011;34127;47.412;9.730;2023-08-31T08:27:18;7.47;;;3.25;;
48317;SDS011;34127;47.412;9.730;2023-08-31T08:29:46;4.45;;;2.78;;
48317;SDS011;34127;47.412;9.730;2023-08-31T08:32:12;5.50;;;2.78;;
48317;SDS011;34127;47.412;9.730;2023-08-31T08:34:38;3.95;;;2.50;;
48317;SDS011;34127;47.412;9.730;2023-08-31T08:37:04;4.68;;;2.75;;
48317;SDS011;34127;47.412;9.730;2023-08-31T08:39:31;3.75;;;2.40;;
48317;SDS011;34127;47.412;9.730;2023-08-31T08:42:00;4.30;;;2.58;;
48317;SDS011;34127;47.412;9.730;2023-08-31T08:44:31;4.75;;;2.75;;
48317;SDS011;34127;47.412;9.730;2023-08-31T08:46:59;3.83;;;2.67;;
48317;SDS011;34127;47.412;9.730;2023-08-31T08:49:26;5.07;;;2.42;;
48317;SDS011;34127;47.412;9.730;2023-08-31T08:51:52;5.65;;;2.67;;
48317;SDS011;34127;47.412;9.730;2023-08-31T08:54:19;4.68;;;2.58;;
48317;SDS011;34127;47.412;9.730;2023-08-31T08:56:48;7.90;;;2.83;;
48317;SDS011;34127;47.412;9.730;2023-08-31T08:59:14;6.28;;;2.80;;
48317;SDS011;34127;47.412;9.730;2023-08-31T09:01:40;8.82;;;3.20;;
48317;SDS011;34127;47.412;9.730;2023-08-31T09:04:06;6.15;;;2.60;;
48317;SDS011;34127;47.412;9.730;2023-08-31T09:06:36;4.35;;;2.70;;
48317;SDS011;34127;47.412;9.730;2023-08-31T09:09:02;5.38;;;2.45;;
48317;SDS011;34127;47.412;9.730;2023-08-31T09:11:28;5.82;;;2.85;;
48317;SDS011;34127;47.412;9.730;2023-08-31T09:13:56;5.22;;;2.70;;
48317;SDS011;34127;47.412;9.730;2023-08-31T09:16:23;5.68;;;2.78;;
48317;SDS011;34127;47.412;9.730;2023-08-31T09:18:51;4.95;;;2.70;;
48317;SDS011;34127;47.412;9.730;2023-08-31T09:21:17;6.82;;;2.80;;
48317;SDS011;34127;47.412;9.730;2023-08-31T09:23:47;5.50;;;2.80;;
48317;SDS011;34127;47.412;9.730;2023-08-31T09:26:14;4.60;;;2.67;;
48317;SDS011;34127;47.412;9.730;2023-08-31T09:28:40;5.75;;;2.75;;
48317;SDS011;34127;47.412;9.730;2023-08-31T09:31:07;6.15;;;3.92;;
48317;SDS011;34127;47.412;9.730;2023-08-31T09:33:36;5.82;;;3.90;;
48317;SDS011;34127;47.412;9.730;2023-08-31T09:36:02;9.45;;;3.72;;
48317;SDS011;34127;47.412;9.730;2023-08-31T09:38:29;5.38;;;2.90;;
48317;SDS011;34127;47.412;9.730;2023-08-31T09:41:05;4.95;;;3.03;;
48317;SDS011;34127;47.412;9.730;2023-08-31T09:43:31;6.78;;;3.03;;
48317;SDS011;34127;47.412;9.730;2023-08-31T09:45:58;6.88;;;3.33;;
48317;SDS011;34127;47.412;9.730;2023-08-31T09:48:26;5.25;;;2.75;;
48317;SDS011;34127;47.412;9.730;2023-08-31T09:50:52;5.70;;;2.60;;
48317;SDS011;34127;47.412;9.730;2023-08-31T09:53:19;4.38;;;2.50;;
48317;SDS011;34127;47.412;9.730;2023-08-31T09:55:46;6.85;;;3.00;;
48317;SDS011;34127;47.412;9.730;2023-08-31T09:58:17;9.15;;;3.55;;
48317;SDS011;34127;47.412;9.730;2023-08-31T10:00:44;15.77;;;4.20;;
48317;SDS011;34127;47.412;9.730;2023-08-31T10:03:12;11.32;;;3.35;;
48317;SDS011;34127;47.412;9.730;2023-08-31T10:05:45;6.22;;;2.50;;
48317;SDS011;34127;47.412;9.730;2023-08-31T10:08:11;5.18;;;2.53;;
48317;SDS011;34127;47.412;9.730;2023-08-31T10:10:38;5.45;;;2.90;;
48317;SDS011;34127;47.412;9.730;2023-08-31T10:13:05;5.50;;;2.88;;
48317;SDS011;34127;47.412;9.730;2023-08-31T10:15:32;6.53;;;2.72;;
48317;SDS011;34127;47.412;9.730;2023-08-31T10:18:02;4.32;;;2.28;;
48317;SDS011;34127;47.412;9.730;2023-08-31T10:20:29;5.82;;;2.55;;
48317;SDS011;34127;47.412;9.730;2023-08-31T10:23:02;4.75;;;2.67;;
48317;SDS011;34127;47.412;9.730;2023-08-31T10:28:24;3.25;;;2.13;;
48317;SDS011;34127;47.412;9.730;2023-08-31T10:33:56;5.78;;;2.72;;
48317;SDS011;34127;47.412;9.730;2023-08-31T10:36:34;5.15;;;2.33;;
48317;SDS011;34127;47.412;9.730;2023-08-31T10:39:01;4.40;;;2.30;;
48317;SDS011;34127;47.412;9.730;2023-08-31T10:41:34;4.97;;;3.30;;
48317;SDS011;34127;47.412;9.730;2023-08-31T10:44:00;4.60;;;2.50;;
48317;SDS011;34127;47.412;9.730;2023-08-31T10:46:33;5.13;;;2.58;;
48317;SDS011;34127;47.412;9.730;2023-08-31T10:51:36;4.80;;;2.50;;
48317;SDS011;34127;47.412;9.730;2023-08-31T10:54:09;5.20;;;2.50;;
48317;SDS011;34127;47.412;9.730;2023-08-31T10:59:22;7.13;;;2.92;;
48317;SDS011;34127;47.412;9.730;2023-08-31T11:01:56;5.25;;;2.58;;
48317;SDS011;34127;47.412;9.730;2023-08-31T11:04:23;6.28;;;2.60;;
48317;SDS011;34127;47.412;9.730;2023-08-31T11:07:11;4.63;;;2.70;;
48317;SDS011;34127;47.412;9.730;2023-08-31T11:09:36;5.72;;;2.67;;
48317;SDS011;34127;47.412;9.730;2023-08-31T11:12:02;5.45;;;2.45;;
48317;SDS011;34127;47.412;9.730;2023-08-31T11:14:29;4.70;;;2.47;;
48317;SDS011;34127;47.412;9.730;2023-08-31T11:16:55;5.47;;;2.50;;
48317;SDS011;34127;47.412;9.730;2023-08-31T11:19:21;8.20;;;3.60;;
48317;SDS011;34127;47.412;9.730;2023-08-31T11:21:48;5.68;;;2.90;;
48317;SDS011;34127;47.412;9.730;2023-08-31T11:24:15;5.22;;;2.53;;
48317;SDS011;34127;47.412;9.730;2023-08-31T11:26:42;5.50;;;2.50;;
48317;SDS011;34127;47.412;9.730;2023-08-31T11:29:08;5.50;;;2.42;;
48317;SDS011;34127;47.412;9.730;2023-08-31T11:31:38;8.05;;;3.50;;
48317;SDS011;34127;47.412;9.730;2023-08-31T11:34:05;6.95;;;2.78;;
48317;SDS011;34127;47.412;9.730;2023-08-31T11:36:34;4.68;;;2.55;;
48317;SDS011;34127;47.412;9.730;2023-08-31T11:39:01;4.28;;;2.20;;
48317;SDS011;34127;47.412;9.730;2023-08-31T11:41:35;5.72;;;3.20;;
48317;SDS011;34127;47.412;9.730;2023-08-31T11:44:05;6.35;;;3.20;;
48317;SDS011;34127;47.412;9.730;2023-08-31T11:46:32;5.18;;;2.70;;
48317;SDS011;34127;47.412;9.730;2023-08-31T11:49:01;5.15;;;2.70;;
48317;SDS011;34127;47.412;9.730;2023-08-31T11:51:31;3.72;;;2.40;;
48317;SDS011;34127;47.412;9.730;2023-08-31T11:53:58;4.55;;;2.50;;
48317;SDS011;34127;47.412;9.730;2023-08-31T11:56:25;4.43;;;2.45;;
48317;SDS011;34127;47.412;9.730;2023-08-31T11:58:51;6.30;;;2.85;;
48317;SDS011;34127;47.412;9.730;2023-08-31T12:01:18;4.40;;;2.75;;
48317;SDS011;34127;47.412;9.730;2023-08-31T12:03:45;4.32;;;2.60;;
48317;SDS011;34127;47.412;9.730;2023-08-31T12:06:14;3.88;;;2.35;;
48317;SDS011;34127;47.412;9.730;2023-08-31T12:08:40;6.10;;;3.00;;
48317;SDS011;34127;47.412;9.730;2023-08-31T12:11:06;5.75;;;2.50;;
48317;SDS011;34127;47.412;9.730;2023-08-31T12:13:33;5.05;;;2.50;;
48317;SDS011;34127;47.412;9.730;2023-08-31T12:15:59;5.53;;;2.83;;
48317;SDS011;34127;47.412;9.730;2023-08-31T12:18:29;5.65;;;2.60;;
48317;SDS011;34127;47.412;9.730;2023-08-31T12:20:56;4.15;;;2.30;;
48317;SDS011;34127;47.412;9.730;2023-08-31T12:23:23;8.23;;;2.83;;
48317;SDS011;34127;47.412;9.730;2023-08-31T12:25:51;8.35;;;2.67;;
48317;SDS011;34127;47.412;9.730;2023-08-31T12:28:18;7.25;;;2.42;;
48317;SDS011;34127;47.412;9.730;2023-08-31T12:30:48;6.18;;;3.33;;
48317;SDS011;34127;47.412;9.730;2023-08-31T12:33:15;5.28;;;2.55;;
48317;SDS011;34127;47.412;9.730;2023-08-31T12:35:42;4.43;;;2.30;;
48317;SDS011;34127;47.412;9.730;2023-08-31T12:38:08;4.32;;;2.40;;
48317;SDS011;34127;47.412;9.730;2023-08-31T12:40:35;3.97;;;2.45;;
48317;SDS011;34127;47.412;9.730;2023-08-31T12:43:01;5.63;;;2.47;;
48317;SDS011;34127;47.412;9.730;2023-08-31T12:45:27;5.30;;;2.30;;
48317;SDS011;34127;47.412;9.730;2023-08-31T12:47:53;6.00;;;3.00;;
48317;SDS011;34127;47.412;9.730;2023-08-31T12:50:21;4.15;;;2.20;;
48317;SDS011;34127;47.412;9.730;2023-08-31T12:52:48;7.13;;;2.50;;
48317;SDS011;34127;47.412;9.730;2023-08-31T12:55:15;3.90;;;2.22;;
48317;SDS011;34127;47.412;9.730;2023-08-31T12:57:41;4.65;;;2.20;;
48317;SDS011;34127;47.412;9.730;2023-08-31T13:00:08;6.30;;;2.65;;
48317;SDS011;34127;47.412;9.730;2023-08-31T13:02:38;5.85;;;2.53;;
48317;SDS011;34127;47.412;9.730;2023-08-31T13:05:05;4.90;;;2.60;;
48317;SDS011;34127;47.412;9.730;2023-08-31T13:07:31;5.75;;;2.20;;
48317;SDS011;34127;47.412;9.730;2023-08-31T13:10:01;5.22;;;2.47;;
48317;SDS011;34127;47.412;9.730;2023-08-31T13:12:30;4.07;;;2.17;;
48317;SDS011;34127;47.412;9.730;2023-08-31T13:15:00;3.60;;;2.08;;
48317;SDS011;34127;47.412;9.730;2023-08-31T13:17:27;6.00;;;2.30;;
48317;SDS011;34127;47.412;9.730;2023-08-31T13:19:54;4.95;;;2.30;;
48317;SDS011;34127;47.412;9.730;2023-08-31T13:22:20;5.68;;;2.22;;
48317;SDS011;34127;47.412;9.730;2023-08-31T13:24:47;5.07;;;2.38;;
48317;SDS011;34127;47.412;9.730;2023-08-31T13:27:17;7.65;;;2.50;;
48317;SDS011;34127;47.412;9.730;2023-08-31T13:29:43;6.30;;;2.40;;
48317;SDS011;34127;47.412;9.730;2023-08-31T13:32:10;4.78;;;2.30;;
48317;SDS011;34127;47.412;9.730;2023-08-31T13:34:36;5.22;;;2.88;;
48317;SDS011;34127;47.412;9.730;2023-08-31T13:37:03;4.57;;;2.30;;
48317;SDS011;34127;47.412;9.730;2023-08-31T13:39:30;5.45;;;2.40;;
48317;SDS011;34127;47.412;9.730;2023-08-31T13:41:56;5.28;;;2.42;;
48317;SDS011;34127;47.412;9.730;2023-08-31T13:44:22;6.45;;;2.50;;
48317;SDS011;34127;47.412;9.730;2023-08-31T13:46:48;5.40;;;2.28;;
48317;SDS011;34127;47.412;9.730;2023-08-31T13:49:15;3.97;;;2.20;;
48317;SDS011;34127;47.412;9.730;2023-08-31T13:51:41;4.43;;;2.33;;
48317;SDS011;34127;47.412;9.730;2023-08-31T13:54:08;6.53;;;2.38;;
48317;SDS011;34127;47.412;9.730;2023-08-31T13:56:34;7.82;;;3.95;;
48317;SDS011;34127;47.412;9.730;2023-08-31T13:59:00;5.38;;;2.72;;
48317;SDS011;34127;47.412;9.730;2023-08-31T14:01:27;6.60;;;2.80;;
48317;SDS011;34127;47.412;9.730;2023-08-31T14:03:53;6.20;;;2.45;;
48317;SDS011;34127;47.412;9.730;2023-08-31T14:06:20;5.82;;;2.38;;
48317;SDS011;34127;47.412;9.730;2023-08-31T14:08:46;3.90;;;2.17;;
48317;SDS011;34127;47.412;9.730;2023-08-31T14:11:13;8.98;;;3.55;;
48317;SDS011;34127;47.412;9.730;2023-08-31T14:13:39;5.95;;;2.63;;
48317;SDS011;34127;47.412;9.730;2023-08-31T14:16:06;4.78;;;2.25;;
48317;SDS011;34127;47.412;9.730;2023-08-31T14:18:32;5.55;;;2.40;;
48317;SDS011;34127;47.412;9.730;2023-08-31T14:20:58;5.40;;;2.20;;
48317;SDS011;34127;47.412;9.730;2023-08-31T14:23:26;4.90;;;2.33;;
48317;SDS011;34127;47.412;9.730;2023-08-31T14:25:52;4.15;;;2.25;;
48317;SDS011;34127;47.412;9.730;2023-08-31T14:28:18;4.72;;;2.20;;
48317;SDS011;34127;47.412;9.730;2023-08-31T14:30:45;5.30;;;2.60;;
48317;SDS011;34127;47.412;9.730;2023-08-31T14:33:12;4.65;;;2.40;;
48317;SDS011;34127;47.412;9.730;2023-08-31T14:35:38;5.03;;;2.20;;
48317;SDS011;34127;47.412;9.730;2023-08-31T14:38:05;7.25;;;2.67;;
48317;SDS011;34127;47.412;9.730;2023-08-31T14:40:32;7.00;;;2.10;;
48317;SDS011;34127;47.412;9.730;2023-08-31T14:43:00;5.50;;;2.78;;
48317;SDS011;34127;47.412;9.730;2023-08-31T14:45:27;4.18;;;2.30;;
48317;SDS011;34127;47.412;9.730;2023-08-31T14:47:53;4.90;;;2.45;;
48317;SDS011;34127;47.412;9.730;2023-08-31T14:50:20;7.50;;;3.00;;
48317;SDS011;34127;47.412;9.730;2023-08-31T14:52:47;5.45;;;2.35;;
48317;SDS011;34127;47.412;9.730;2023-08-31T14:55:14;5.47;;;2.60;;
48317;SDS011;34127;47.412;9.730;2023-08-31T14:57:40;4.95;;;2.42;;
48317;SDS011;34127;47.412;9.730;2023-08-31T15:00:08;8.65;;;2.55;;
48317;SDS011;34127;47.412;9.730;2023-08-31T15:02:35;6.15;;;2.55;;
48317;SDS011;34127;47.412;9.730;2023-08-31T15:05:01;6.22;;;2.88;;
48317;SDS011;34127;47.412;9.730;2023-08-31T15:07:28;5.18;;;2.45;;